createdAt,value
2023-04-18T00:00:42.237Z,7.57
2023-04-18T00:03:18.186Z,7.45
2023-04-18T00:05:47.785Z,6.07
2023-04-18T00:08:17.431Z,6.25
2023-04-18T00:10:44.035Z,6.07
2023-04-18T00:13:10.644Z,6.17
2023-04-18T00:15:37.148Z,6.45
2023-04-18T00:18:06.199Z,5.85
2023-04-18T00:20:33.106Z,5.95
2023-04-18T00:23:00.660Z,5.93
2023-04-18T00:25:27.276Z,5.67
2023-04-18T00:27:53.772Z,4.90
2023-04-18T00:30:20.226Z,5.05
2023-04-18T00:32:46.721Z,5.93
2023-04-18T00:35:13.326Z,4.82
2023-04-18T00:37:39.758Z,5.03
2023-04-18T00:40:06.681Z,4.75
2023-04-18T00:42:33.588Z,5.05
2023-04-18T00:45:00.163Z,4.22
2023-04-18T00:47:26.865Z,4.25
2023-04-18T00:49:54.272Z,4.50
2023-04-18T00:52:21.134Z,4.35
2023-04-18T00:54:47.660Z,4.75
2023-04-18T00:57:14.513Z,4.38
2023-04-18T00:59:50.484Z,4.20
2023-04-18T01:02:17.405Z,4.13
2023-04-18T01:04:44.021Z,4.15
2023-04-18T01:09:52.890Z,4.43
2023-04-18T01:12:19.507Z,5.07
2023-04-18T01:14:46.076Z,4.90
2023-04-18T01:17:13.378Z,4.97
2023-04-18T01:19:40.735Z,4.40
2023-04-18T01:22:08.365Z,4.88
2023-04-18T01:24:35.007Z,4.80
2023-04-18T01:27:03.137Z,4.37
2023-04-18T01:29:29.719Z,3.97
2023-04-18T01:31:56.122Z,4.63
2023-04-18T01:34:22.806Z,4.07
2023-04-18T01:36:49.555Z,4.65
2023-04-18T01:39:16.256Z,3.87
2023-04-18T01:44:33.766Z,4.07
2023-04-18T01:47:00.257Z,4.70
2023-04-18T01:49:29.937Z,4.43
2023-04-18T01:51:56.321Z,3.83
2023-04-18T01:54:22.826Z,3.97
2023-04-18T01:56:49.354Z,3.92
2023-04-18T01:59:16.032Z,3.70
2023-04-18T02:01:42.773Z,3.95
2023-04-18T02:04:09.576Z,3.80
2023-04-18T02:06:36.206Z,3.95
2023-04-18T02:09:02.687Z,4.35
2023-04-18T02:11:29.926Z,3.63
2023-04-18T02:13:56.529Z,4.13
2023-04-18T02:16:23.015Z,4.40
2023-04-18T02:18:52.494Z,3.60
2023-04-18T02:21:19.014Z,4.03
2023-04-18T02:23:45.519Z,4.38
2023-04-18T02:26:12.106Z,4.20
2023-04-18T02:28:39.126Z,3.50
2023-04-18T02:33:56.623Z,3.97
2023-04-18T02:36:23.368Z,4.28
2023-04-18T02:38:49.788Z,3.58
2023-04-18T02:41:19.609Z,3.90
2023-04-18T02:43:46.219Z,3.88
2023-04-18T02:46:12.856Z,3.17
2023-04-18T02:48:39.468Z,3.95
2023-04-18T02:51:07.587Z,4.18
2023-04-18T02:53:34.991Z,3.60
2023-04-18T02:56:02.273Z,3.60
2023-04-18T02:58:28.780Z,4.93
2023-04-18T03:00:56.402Z,3.63
2023-04-18T03:03:23.005Z,3.45
2023-04-18T03:05:49.401Z,3.73
2023-04-18T03:08:16.282Z,3.80
2023-04-18T03:10:42.907Z,3.60
2023-04-18T03:13:09.552Z,4.22
2023-04-18T03:15:35.986Z,3.63
2023-04-18T03:18:02.508Z,3.90
2023-04-18T03:20:28.962Z,4.20
2023-04-18T03:22:55.610Z,3.65
2023-04-18T03:25:22.129Z,4.35
2023-04-18T03:27:48.709Z,4.60
2023-04-18T03:30:15.359Z,4.47
2023-04-18T03:32:42.337Z,4.45
2023-04-18T03:35:09.375Z,4.32
2023-04-18T03:37:36.148Z,5.43
2023-04-18T03:40:08.735Z,4.45
2023-04-18T03:42:35.294Z,4.50
2023-04-18T03:45:05.034Z,4.60
2023-04-18T03:47:32.263Z,4.60
2023-04-18T03:50:01.069Z,4.57
2023-04-18T03:52:29.737Z,4.05
2023-04-18T03:54:56.349Z,4.40
2023-04-18T03:57:23.083Z,4.07
2023-04-18T03:59:49.672Z,4.80
2023-04-18T04:02:16.395Z,4.63
2023-04-18T04:04:43.143Z,4.95
2023-04-18T04:07:09.757Z,4.90
2023-04-18T04:09:36.241Z,4.28
2023-04-18T04:12:03.238Z,4.72
2023-04-18T04:14:29.649Z,4.38
2023-04-18T04:16:56.294Z,4.65
2023-04-18T04:19:22.818Z,4.40
2023-04-18T04:21:49.485Z,5.22
2023-04-18T04:24:16.192Z,4.93
2023-04-18T04:26:43.283Z,5.38
2023-04-18T04:29:10.917Z,4.95
2023-04-18T04:31:37.512Z,5.20
2023-04-18T04:34:04.986Z,5.22
2023-04-18T04:36:33.509Z,5.00
2023-04-18T04:39:00.041Z,4.78
2023-04-18T04:41:27.837Z,4.68
2023-04-18T04:43:54.521Z,4.80
2023-04-18T04:46:21.123Z,4.53
2023-04-18T04:48:47.624Z,4.97
2023-04-18T04:51:14.050Z,5.45
2023-04-18T04:53:40.425Z,5.30
2023-04-18T04:56:07.312Z,4.40
2023-04-18T04:58:34.175Z,5.38
2023-04-18T05:01:00.833Z,4.88
2023-04-18T05:03:27.492Z,4.90
2023-04-18T05:05:54.116Z,5.15
2023-04-18T05:08:20.806Z,4.67
2023-04-18T05:10:47.743Z,5.18
2023-04-18T05:13:14.204Z,4.40
2023-04-18T05:15:40.798Z,5.88
2023-04-18T05:18:07.428Z,5.15
2023-04-18T05:20:33.887Z,4.97
2023-04-18T05:23:00.366Z,5.22
2023-04-18T05:25:26.880Z,5.15
2023-04-18T05:27:53.423Z,5.47
2023-04-18T05:30:21.978Z,5.47
2023-04-18T05:32:48.706Z,5.57
2023-04-18T05:35:15.474Z,5.50
2023-04-18T05:37:57.706Z,5.55
2023-04-18T05:40:35.715Z,5.43
2023-04-18T05:43:02.267Z,5.40
2023-04-18T05:45:28.898Z,4.63
2023-04-18T05:47:56.498Z,4.72
2023-04-18T05:50:23.227Z,5.80
2023-04-18T05:52:49.678Z,5.05
2023-04-18T05:55:16.137Z,5.10
2023-04-18T05:57:42.646Z,5.50
2023-04-18T06:00:12.977Z,5.57
2023-04-18T06:02:39.654Z,5.65
2023-04-18T06:05:06.536Z,4.85
2023-04-18T06:07:33.113Z,5.20
2023-04-18T06:09:59.578Z,5.30
2023-04-18T06:12:26.046Z,5.10
2023-04-18T06:14:52.529Z,5.82
2023-04-18T06:17:19.207Z,5.60
2023-04-18T06:19:45.705Z,5.35
2023-04-18T06:22:12.062Z,5.37
2023-04-18T06:24:38.563Z,5.78
2023-04-18T06:27:05.598Z,5.63
2023-04-18T06:29:33.773Z,4.80
2023-04-18T06:32:01.225Z,5.18
2023-04-18T06:34:27.982Z,5.20
2023-04-18T06:39:49.227Z,5.18
2023-04-18T06:42:15.681Z,5.20
2023-04-18T06:44:43.189Z,4.90
2023-04-18T06:47:11.098Z,4.70
2023-04-18T06:49:37.694Z,4.63
2023-04-18T06:52:04.264Z,5.18
2023-04-18T06:54:30.909Z,5.03
2023-04-18T06:56:57.549Z,5.15
2023-04-18T06:59:23.964Z,4.87
2023-04-18T07:01:57.017Z,4.55
2023-04-18T07:04:29.655Z,5.13
2023-04-18T07:06:56.132Z,4.90
2023-04-18T07:09:23.051Z,5.35
2023-04-18T07:11:51.075Z,4.50
2023-04-18T07:14:19.789Z,4.63
2023-04-18T07:16:47.251Z,5.00
2023-04-18T07:19:14.024Z,4.38
2023-04-18T07:21:42.949Z,5.03
2023-04-18T07:24:10.136Z,5.70
2023-04-18T07:26:37.374Z,4.47
2023-04-18T07:29:04.416Z,4.63
2023-04-18T07:31:31.517Z,4.25
2023-04-18T07:33:58.680Z,4.20
2023-04-18T07:36:26.324Z,4.10
2023-04-18T07:38:52.817Z,4.07
2023-04-18T07:41:19.340Z,4.20
2023-04-18T07:43:45.748Z,4.82
2023-04-18T07:46:12.410Z,4.43
2023-04-18T07:48:38.982Z,4.33
2023-04-18T07:51:05.690Z,4.68
2023-04-18T07:53:32.041Z,4.65
2023-04-18T07:55:58.622Z,3.95
2023-04-18T07:58:25.033Z,4.47
2023-04-18T08:00:51.622Z,4.03
2023-04-18T08:03:18.403Z,3.92
2023-04-18T08:05:44.928Z,4.32
2023-04-18T08:08:12.319Z,4.00
2023-04-18T08:10:38.971Z,3.88
2023-04-18T08:13:06.726Z,4.17
2023-04-18T08:15:33.238Z,4.00
2023-04-18T08:18:00.481Z,4.25
2023-04-18T08:20:27.432Z,3.90
2023-04-18T08:23:05.654Z,4.10
2023-04-18T08:25:36.095Z,4.63
2023-04-18T08:28:02.504Z,3.88
2023-04-18T08:30:29.456Z,3.97
2023-04-18T08:32:55.947Z,4.10
2023-04-18T08:35:22.614Z,3.78
2023-04-18T08:37:49.117Z,3.90
2023-04-18T08:40:15.605Z,3.10
2023-04-18T08:42:46.425Z,3.40
2023-04-18T08:45:16.547Z,3.33
2023-04-18T08:47:44.547Z,3.40
2023-04-18T08:50:11.271Z,3.93
2023-04-18T08:52:39.934Z,3.53
2023-04-18T08:55:07.389Z,3.60
2023-04-18T08:57:35.896Z,3.83
2023-04-18T09:00:02.333Z,3.50
2023-04-18T09:02:42.454Z,3.50
2023-04-18T09:05:19.982Z,3.28
2023-04-18T09:07:47.821Z,3.08
2023-04-18T09:10:25.257Z,3.00
2023-04-18T09:12:52.131Z,2.67
2023-04-18T09:15:23.208Z,3.10
2023-04-18T09:17:53.369Z,3.50
2023-04-18T09:20:41.344Z,2.95
2023-04-18T09:23:14.875Z,3.15
2023-04-18T09:25:44.122Z,3.28
2023-04-18T09:28:29.140Z,3.67
2023-04-18T09:30:58.122Z,4.10
2023-04-18T09:33:29.749Z,4.00
2023-04-18T09:36:16.833Z,3.70
2023-04-18T09:38:43.504Z,3.92
2023-04-18T09:41:25.344Z,3.97
2023-04-18T09:44:14.025Z,3.95
2023-04-18T09:46:42.520Z,4.15
2023-04-18T09:49:11.335Z,4.00
2023-04-18T09:51:40.186Z,3.40
2023-04-18T09:54:07.269Z,2.80
2023-04-18T09:56:51.766Z,2.50
2023-04-18T09:59:44.701Z,3.30
2023-04-18T10:02:47.191Z,2.90
2023-04-18T10:05:20.779Z,2.75
2023-04-18T10:07:50.455Z,2.50
2023-04-18T10:10:17.401Z,2.63
2023-04-18T10:12:44.758Z,2.60
2023-04-18T10:15:11.839Z,2.28
2023-04-18T10:18:05.757Z,2.88
2023-04-18T10:20:34.984Z,2.77
2023-04-18T10:23:31.350Z,2.67
2023-04-18T10:25:59.286Z,2.53
2023-04-18T10:28:27.701Z,2.72
2023-04-18T10:30:56.099Z,2.75
2023-04-18T10:33:33.751Z,3.30
2023-04-18T10:36:09.371Z,3.05
2023-04-18T10:38:44.921Z,2.75
2023-04-18T10:41:22.363Z,3.03
2023-04-18T10:44:10.110Z,2.60
2023-04-18T10:46:38.422Z,2.60
2023-04-18T10:49:24.014Z,2.40
2023-04-18T10:51:54.391Z,2.20
2023-04-18T10:54:37.810Z,2.50
2023-04-18T10:57:05.885Z,3.00
2023-04-18T10:59:37.619Z,2.50
2023-04-18T11:02:25.659Z,2.20
2023-04-18T11:04:53.846Z,2.47
2023-04-18T11:07:34.033Z,2.65
2023-04-18T11:10:01.594Z,3.10
2023-04-18T11:12:32.953Z,2.83
2023-04-18T11:15:03.140Z,2.53
2023-04-18T11:17:35.978Z,2.97
2023-04-18T11:20:17.251Z,2.72
2023-04-18T11:23:01.858Z,3.38
2023-04-18T11:25:30.675Z,3.30
2023-04-18T11:28:01.715Z,3.67
2023-04-18T11:30:36.076Z,3.35
2023-04-18T11:33:11.184Z,3.22
2023-04-18T11:35:42.841Z,3.78
2023-04-18T11:38:11.729Z,3.70
2023-04-18T11:40:38.481Z,3.80
2023-04-18T11:43:07.586Z,4.03
2023-04-18T11:45:34.033Z,3.70
2023-04-18T11:48:01.313Z,4.32
2023-04-18T11:50:28.010Z,3.77
2023-04-18T11:52:55.596Z,4.78
2023-04-18T11:55:24.975Z,3.95
2023-04-18T11:57:53.911Z,4.10
2023-04-18T12:00:43.601Z,4.00
2023-04-18T12:03:17.968Z,4.73
2023-04-18T12:05:46.778Z,4.03
2023-04-18T12:08:20.674Z,4.18
2023-04-18T12:10:53.006Z,4.10
2023-04-18T12:13:25.068Z,3.78
2023-04-18T12:15:51.535Z,5.17
2023-04-18T12:18:31.455Z,4.88
2023-04-18T12:21:02.168Z,4.68
2023-04-18T12:23:37.285Z,4.55
2023-04-18T12:26:07.658Z,4.63
2023-04-18T12:28:35.766Z,5.33
2023-04-18T12:31:02.923Z,5.78
2023-04-18T12:33:30.628Z,5.50
2023-04-18T12:36:05.012Z,4.88
2023-04-18T12:38:31.449Z,5.40
2023-04-18T12:40:57.820Z,5.60
2023-04-18T12:43:24.441Z,5.60
2023-04-18T12:45:51.057Z,5.35
2023-04-18T12:48:17.467Z,5.20
2023-04-18T12:50:44.018Z,6.28
2023-04-18T12:53:10.751Z,6.07
2023-04-18T12:55:37.673Z,5.70
2023-04-18T12:58:04.365Z,5.68
2023-04-18T13:00:32.779Z,5.38
2023-04-18T13:02:59.928Z,5.55
2023-04-18T13:05:31.640Z,5.30
2023-04-18T13:08:15.267Z,5.03
2023-04-18T13:10:43.794Z,6.50
2023-04-18T13:13:10.743Z,6.25
2023-04-18T13:15:37.963Z,6.35
2023-04-18T13:18:06.558Z,6.17
2023-04-18T13:20:34.353Z,6.25
2023-04-18T13:23:02.590Z,6.32
2023-04-18T13:25:29.070Z,6.03
2023-04-18T13:27:56.277Z,6.13
2023-04-18T13:30:22.689Z,6.80
2023-04-18T13:32:58.751Z,6.28
2023-04-18T13:35:25.233Z,6.50
2023-04-18T13:37:51.767Z,7.03
2023-04-18T13:40:18.271Z,6.00
2023-04-18T13:42:52.351Z,6.40
2023-04-18T13:45:25.003Z,6.68
2023-04-18T13:47:51.640Z,6.35
2023-04-18T13:50:18.537Z,6.70
2023-04-18T13:52:44.997Z,6.40
2023-04-18T13:55:12.400Z,6.23
2023-04-18T13:57:39.165Z,6.28
2023-04-18T14:00:06.715Z,6.93
2023-04-18T14:02:33.486Z,6.50
2023-04-18T14:05:00.477Z,7.00
2023-04-18T14:07:27.215Z,7.20
2023-04-18T14:09:54.062Z,6.38
2023-04-18T14:12:21.101Z,6.38
2023-04-18T14:14:47.965Z,5.90
2023-04-18T14:17:14.487Z,6.30
2023-04-18T14:19:40.988Z,6.43
2023-04-18T14:22:08.076Z,6.65
2023-04-18T14:24:37.356Z,6.57
2023-04-18T14:27:03.896Z,6.65
2023-04-18T14:29:30.314Z,6.38
2023-04-18T14:31:56.927Z,6.93
2023-04-18T14:34:23.696Z,6.25
2023-04-18T14:36:51.540Z,6.70
2023-04-18T14:39:17.947Z,6.38
2023-04-18T14:41:45.766Z,6.45
2023-04-18T14:47:22.006Z,5.57
2023-04-18T14:49:49.020Z,6.35
2023-04-18T14:52:15.357Z,5.50
2023-04-18T14:54:42.053Z,5.75
2023-04-18T14:57:10.156Z,5.73
2023-04-18T14:59:36.810Z,6.35
2023-04-18T15:02:03.535Z,6.32
2023-04-18T15:04:30.251Z,5.90
2023-04-18T15:06:57.046Z,5.80
2023-04-18T15:09:23.899Z,5.37
2023-04-18T15:11:51.506Z,5.63
2023-04-18T15:14:17.907Z,6.00
2023-04-18T15:16:44.520Z,5.53
2023-04-18T15:19:10.978Z,5.35
2023-04-18T15:21:38.823Z,5.33
2023-04-18T15:24:05.594Z,5.82
2023-04-18T15:26:33.266Z,5.68
2023-04-18T15:29:03.019Z,5.20
2023-04-18T15:31:30.877Z,5.68
2023-04-18T15:33:57.379Z,5.73
2023-04-18T15:36:23.894Z,5.22
2023-04-18T15:38:50.622Z,4.68
2023-04-18T15:41:16.981Z,5.30
2023-04-18T15:43:45.600Z,5.18
2023-04-18T15:46:12.299Z,5.00
2023-04-18T15:48:38.786Z,4.78
2023-04-18T15:51:05.509Z,4.70
2023-04-18T15:53:32.617Z,4.88
2023-04-18T15:56:01.780Z,5.50
2023-04-18T15:58:30.401Z,5.17
2023-04-18T16:00:57.391Z,5.07
2023-04-18T16:03:24.724Z,5.55
2023-04-18T16:05:51.717Z,5.15
2023-04-18T16:08:18.174Z,4.55
2023-04-18T16:10:45.218Z,4.47
2023-04-18T16:13:11.632Z,5.18
2023-04-18T16:15:58.474Z,5.03
2023-04-18T16:18:24.982Z,5.20
2023-04-18T16:20:51.928Z,4.85
2023-04-18T16:23:20.155Z,5.00
2023-04-18T16:25:46.862Z,5.03
2023-04-18T16:28:13.374Z,5.13
2023-04-18T16:30:49.140Z,5.13
2023-04-18T16:33:16.275Z,4.72
2023-04-18T16:35:42.740Z,5.00
2023-04-18T16:38:09.242Z,5.38
2023-04-18T16:40:35.802Z,4.93
2023-04-18T16:43:02.469Z,4.82
2023-04-18T16:45:29.008Z,5.00
2023-04-18T16:47:55.656Z,4.50
2023-04-18T16:50:22.707Z,5.22
2023-04-18T16:52:49.557Z,4.68
2023-04-18T16:55:16.048Z,4.43
2023-04-18T16:57:42.535Z,4.70
2023-04-18T17:00:10.235Z,4.30
2023-04-18T17:02:39.580Z,5.00
2023-04-18T17:05:06.880Z,4.55
2023-04-18T17:07:33.331Z,5.57
2023-04-18T17:10:09.854Z,4.30
2023-04-18T17:12:36.704Z,4.50
2023-04-18T17:15:03.725Z,4.60
2023-04-18T17:17:30.174Z,4.63
2023-04-18T17:19:57.403Z,4.32
2023-04-18T17:22:24.089Z,4.75
2023-04-18T17:24:50.729Z,4.50
2023-04-18T17:27:17.352Z,4.70
2023-04-18T17:29:48.884Z,4.75
2023-04-18T17:32:15.564Z,4.68
2023-04-18T17:34:42.154Z,5.43
2023-04-18T17:37:08.721Z,4.90
2023-04-18T17:39:35.331Z,4.80
2023-04-18T17:42:02.172Z,4.20
2023-04-18T17:44:29.171Z,4.97
2023-04-18T17:46:55.538Z,4.90
2023-04-18T17:49:22.016Z,5.03
2023-04-18T17:52:03.852Z,4.28
2023-04-18T17:54:30.427Z,4.20
2023-04-18T17:56:57.844Z,4.43
2023-04-18T17:59:28.218Z,4.82
2023-04-18T18:01:54.875Z,4.50
2023-04-18T18:04:28.012Z,4.50
2023-04-18T18:07:01.038Z,4.70
2023-04-18T18:09:41.460Z,4.28
2023-04-18T18:12:10.624Z,5.10
2023-04-18T18:14:37.876Z,4.23
2023-04-18T18:17:04.913Z,5.03
2023-04-18T18:19:31.603Z,4.68
2023-04-18T18:21:58.164Z,4.38
2023-04-18T18:24:26.974Z,4.55
2023-04-18T18:26:53.758Z,4.53
2023-04-18T18:29:20.654Z,4.32
2023-04-18T18:31:47.353Z,4.45
2023-04-18T18:34:14.022Z,4.90
2023-04-18T18:36:40.541Z,4.45
2023-04-18T18:39:06.978Z,5.10
2023-04-18T18:41:33.550Z,5.10
2023-04-18T18:43:59.959Z,4.70
2023-04-18T18:46:27.394Z,4.90
2023-04-18T18:48:54.017Z,5.00
2023-04-18T18:51:20.478Z,4.73
2023-04-18T18:53:47.100Z,4.60
2023-04-18T18:56:13.684Z,4.85
2023-04-18T18:58:40.688Z,4.85
2023-04-18T19:01:07.214Z,4.70
2023-04-18T19:03:34.849Z,4.40
2023-04-18T19:06:11.396Z,4.82
2023-04-18T19:08:41.487Z,5.53
2023-04-18T19:11:08.060Z,4.88
2023-04-18T19:13:34.827Z,4.65
2023-04-18T19:16:01.410Z,5.27
2023-04-18T19:18:28.372Z,4.63
2023-04-18T19:20:54.785Z,5.03
2023-04-18T19:23:23.776Z,4.35
2023-04-18T19:25:50.372Z,3.72
2023-04-18T19:28:18.379Z,3.90
2023-04-18T19:30:46.419Z,4.45
2023-04-18T19:33:13.046Z,4.05
2023-04-18T19:35:40.977Z,4.03
2023-04-18T19:38:07.462Z,3.92
2023-04-18T19:40:34.057Z,3.40
2023-04-18T19:43:00.805Z,3.33
2023-04-18T19:45:27.431Z,3.38
2023-04-18T19:47:53.876Z,3.60
2023-04-18T19:50:20.364Z,3.95
2023-04-18T19:52:46.821Z,3.57
2023-04-18T19:55:13.316Z,3.55
2023-04-18T19:57:41.532Z,3.15
2023-04-18T20:00:13.023Z,3.72
2023-04-18T20:02:40.562Z,3.60
2023-04-18T20:05:09.088Z,3.60
2023-04-18T20:07:35.919Z,3.60
2023-04-18T20:10:02.480Z,3.80
2023-04-18T20:12:29.067Z,3.70
2023-04-18T20:14:56.063Z,3.83
2023-04-18T20:17:22.758Z,3.27
2023-04-18T20:19:49.902Z,3.67
2023-04-18T20:22:17.161Z,3.45
2023-04-18T20:24:45.112Z,3.28
2023-04-18T20:27:12.076Z,3.78
2023-04-18T20:29:38.639Z,3.80
2023-04-18T20:32:05.760Z,3.20
2023-04-18T20:34:32.536Z,3.33
2023-04-18T20:37:00.185Z,3.60
2023-04-18T20:39:28.012Z,3.58
2023-04-18T20:41:57.582Z,3.43
2023-04-18T20:44:25.016Z,3.33
2023-04-18T20:47:03.583Z,3.40
2023-04-18T20:49:29.994Z,3.20
2023-04-18T20:51:56.849Z,3.53
2023-04-18T20:54:23.651Z,3.60
2023-04-18T20:56:50.080Z,3.20
2023-04-18T20:59:19.636Z,3.30
2023-04-18T21:01:46.865Z,3.80
2023-04-18T21:04:14.103Z,3.55
2023-04-18T21:06:41.074Z,3.33
2023-04-18T21:09:07.701Z,2.95
2023-04-18T21:11:34.827Z,3.42
2023-04-18T21:14:01.484Z,3.40
2023-04-18T21:16:28.094Z,3.63
2023-04-18T21:18:55.384Z,3.10
2023-04-18T21:21:21.849Z,3.03
2023-04-18T21:23:48.667Z,3.25
2023-04-18T21:26:15.242Z,3.28
2023-04-18T21:29:01.779Z,3.38
2023-04-18T21:31:30.821Z,3.47
2023-04-18T21:33:59.246Z,3.50
2023-04-18T21:36:27.468Z,3.15
2023-04-18T21:38:56.071Z,3.20
2023-04-18T21:41:23.674Z,3.63
2023-04-18T21:43:50.938Z,3.40
2023-04-18T21:46:17.577Z,3.00
2023-04-18T21:48:46.090Z,3.35
2023-04-18T21:51:15.072Z,3.50
2023-04-18T21:53:42.115Z,2.95
2023-04-18T21:56:09.123Z,2.97
2023-04-18T21:58:35.605Z,3.60
2023-04-18T22:01:02.673Z,3.40
2023-04-18T22:03:29.373Z,2.95
2023-04-18T22:05:56.621Z,3.30
2023-04-18T22:08:25.912Z,3.20
2023-04-18T22:10:57.730Z,3.50
2023-04-18T22:13:25.630Z,3.35
2023-04-18T22:15:52.005Z,2.92
2023-04-18T22:18:19.196Z,3.03
2023-04-18T22:20:47.326Z,3.13
2023-04-18T22:23:14.294Z,3.33
2023-04-18T22:25:41.038Z,2.67
2023-04-18T22:28:07.875Z,2.95
2023-04-18T22:30:34.405Z,3.30
2023-04-18T22:33:00.881Z,3.27
2023-04-18T22:35:27.584Z,3.83
2023-04-18T22:37:55.330Z,3.50
2023-04-18T22:40:21.976Z,3.08
2023-04-18T22:42:48.534Z,3.65
2023-04-18T22:45:15.504Z,3.43
2023-04-18T22:47:42.237Z,3.80
2023-04-18T22:50:08.918Z,3.30
2023-04-18T22:52:35.666Z,3.33
2023-04-18T22:55:03.273Z,3.20
2023-04-18T22:57:29.846Z,3.30
2023-04-18T22:59:56.475Z,3.65
2023-04-18T23:02:23.297Z,3.47
2023-04-18T23:04:50.610Z,3.50
2023-04-18T23:07:17.199Z,3.70
2023-04-18T23:09:43.865Z,4.53
2023-04-18T23:12:10.410Z,2.92
2023-04-18T23:14:36.942Z,2.83
2023-04-18T23:17:03.418Z,3.35
2023-04-18T23:19:29.986Z,3.38
2023-04-18T23:21:56.489Z,3.77
2023-04-18T23:24:23.007Z,3.90
2023-04-18T23:26:49.722Z,3.55
2023-04-18T23:29:16.427Z,3.72
2023-04-18T23:31:42.916Z,3.35
2023-04-18T23:34:10.621Z,3.20
2023-04-18T23:36:37.324Z,3.22
2023-04-18T23:39:04.193Z,3.40
2023-04-18T23:41:30.738Z,3.50
2023-04-18T23:43:57.138Z,3.47
2023-04-18T23:46:23.621Z,3.70
2023-04-18T23:48:50.090Z,3.53
2023-04-18T23:51:16.702Z,3.75
2023-04-18T23:53:43.161Z,3.53
2023-04-18T23:56:09.593Z,3.65
2023-04-18T23:58:35.995Z,3.77
